Time;durP1;ratioP1;P1;durP2;ratioP2;P2;SDS_P1;SDS_P2;PMS_P1;PMS_P2;Temp;Humidity;BMP_temperature;BMP_pressure;BME280_temperature;BME280_humidity;BME280_pressure;Samples;Min_cycle;Max_cycle;Signal;HPM_P1;HPM_P2
2022/07/19 00:00:24;;;;;;;5.13;2.83;;;16.40;25.40;;;;;;5060585;28;46430;-63
2022/07/19 00:02:51;;;;;;;5.40;2.80;;;16.40;25.60;;;;;;5060672;28;46530;-63
2022/07/19 00:05:17;;;;;;;3.90;2.27;;;16.30;25.90;;;;;;5057912;28;46388;-61
2022/07/19 00:07:45;;;;;;;9.33;2.70;;;16.30;26.10;;;;;;5059716;28;46428;-63
2022/07/19 00:10:12;;;;;;;10.50;3.07;;;16.10;26.20;;;;;;5059694;28;46591;-63
2022/07/19 00:12:38;;;;;;;7.27;2.57;;;15.90;26.40;;;;;;5060771;28;47020;-63
2022/07/19 00:15:06;;;;;;;4.37;2.20;;;15.80;26.60;;;;;;5061192;28;46335;-63
2022/07/19 00:17:32;;;;;;;6.20;2.63;;;15.70;26.70;;;;;;5063026;28;45839;-63
2022/07/19 00:19:57;;;;;;;6.93;2.60;;;15.60;26.80;;;;;;5063532;28;46389;-63
2022/07/19 00:22:23;;;;;;;4.63;2.40;;;15.70;26.80;;;;;;5063473;28;48252;-64
2022/07/19 00:24:48;;;;;;;5.23;2.60;;;15.70;26.70;;;;;;5062323;28;46591;-63
2022/07/19 00:27:14;;;;;;;5.63;2.50;;;15.80;26.70;;;;;;5064116;28;46689;-63
2022/07/19 00:29:40;;;;;;;6.90;2.50;;;15.80;26.70;;;;;;5060664;28;45890;-63
2022/07/19 00:32:05;;;;;;;7.03;2.90;;;15.80;26.90;;;;;;5063159;28;47027;-63
2022/07/19 00:34:31;;;;;;;7.70;3.00;;;15.80;27.00;;;;;;5063683;28;46426;-63
2022/07/19 00:36:57;;;;;;;4.97;3.10;;;15.70;27.30;;;;;;5062151;28;46580;-63
2022/07/19 00:39:22;;;;;;;4.43;2.50;;;15.50;27.60;;;;;;5063508;28;46601;-63
2022/07/19 00:41:48;;;;;;;6.90;2.53;;;15.40;27.90;;;;;;5064829;28;47111;-63
2022/07/19 00:44:13;;;;;;;9.07;2.87;;;15.30;28.00;;;;;;5062066;28;46492;-63
2022/07/19 00:46:39;;;;;;;13.27;3.00;;;15.20;28.20;;;;;;5061985;28;46282;-63
2022/07/19 00:49:05;;;;;;;4.90;2.50;;;15.20;28.40;;;;;;5063506;28;45885;-63
2022/07/19 00:51:35;;;;;;;4.63;2.60;;;15.10;28.60;;;;;;5060053;28;46365;-63
2022/07/19 00:54:02;;;;;;;7.43;2.77;;;15.10;28.60;;;;;;5064019;28;46639;-63
2022/07/19 00:56:33;;;;;;;4.97;2.80;;;15.00;28.90;;;;;;5063358;28;45916;-63
2022/07/19 00:59:00;;;;;;;10.60;2.63;;;14.90;29.40;;;;;;5063331;28;46457;-63
2022/07/19 01:01:25;;;;;;;10.23;3.23;;;14.90;29.60;;;;;;5061369;28;46622;-63
2022/07/19 01:03:51;;;;;;;6.00;2.47;;;14.80;29.50;;;;;;5062463;28;46360;-63
2022/07/19 01:06:17;;;;;;;5.60;2.73;;;14.80;29.50;;;;;;5062172;28;46344;-63
2022/07/19 01:08:42;;;;;;;5.13;2.63;;;14.80;29.50;;;;;;5062380;28;46567;-63
2022/07/19 01:11:08;;;;;;;7.03;2.77;;;14.90;29.60;;;;;;5060906;28;46467;-63
2022/07/19 01:13:34;;;;;;;6.57;3.00;;;14.90;29.60;;;;;;5062127;28;46244;-63
2022/07/19 01:16:00;;;;;;;6.77;3.37;;;14.90;29.60;;;;;;5061229;28;46360;-63
2022/07/19 01:18:26;;;;;;;3.57;2.47;;;14.90;29.60;;;;;;5060945;28;46296;-63
2022/07/19 01:20:52;;;;;;;9.53;2.70;;;14.90;29.60;;;;;;5062342;28;46516;-63
2022/07/19 01:23:17;;;;;;;6.33;2.93;;;15.00;29.60;;;;;;5059112;28;47003;-63
2022/07/19 01:25:43;;;;;;;4.73;3.07;;;15.00;29.60;;;;;;5060516;28;46727;-63
2022/07/19 01:28:09;;;;;;;5.87;2.73;;;15.10;29.70;;;;;;5060432;28;46435;-63
2022/07/19 01:30:35;;;;;;;5.77;3.10;;;15.00;29.60;;;;;;5062239;28;47099;-63
2022/07/19 01:33:02;;;;;;;6.33;3.00;;;15.10;29.80;;;;;;5056267;28;46779;-63
2022/07/19 01:35:28;;;;;;;6.47;2.80;;;15.10;29.70;;;;;;5061610;28;46405;-63
2022/07/19 01:37:54;;;;;;;16.70;3.07;;;15.10;29.80;;;;;;5060966;28;46512;-63
2022/07/19 01:40:20;;;;;;;12.70;3.37;;;15.20;29.80;;;;;;5061528;28;46302;-63
2022/07/19 01:42:48;;;;;;;5.63;3.70;;;15.20;29.80;;;;;;5061612;28;46391;-63
2022/07/19 01:45:14;;;;;;;8.30;3.00;;;15.20;29.80;;;;;;5061397;28;46440;-64
2022/07/19 01:47:43;;;;;;;6.37;3.30;;;15.30;29.90;;;;;;5059251;28;46487;-62
2022/07/19 01:50:10;;;;;;;5.83;3.20;;;15.30;30.00;;;;;;5059221;28;48293;-62
2022/07/19 01:52:36;;;;;;;5.37;3.20;;;15.30;30.20;;;;;;5061571;27;46425;-62
2022/07/19 01:55:03;;;;;;;6.80;3.43;;;15.20;30.40;;;;;;5060872;28;46369;-62
2022/07/19 01:57:29;;;;;;;5.83;3.30;;;15.00;30.60;;;;;;5060033;28;46399;-62
2022/07/19 01:59:55;;;;;;;4.50;2.53;;;14.90;31.10;;;;;;5059386;28;46971;-62
2022/07/19 02:02:21;;;;;;;4.03;2.60;;;14.70;31.40;;;;;;5060822;28;46372;-62
2022/07/19 02:04:46;;;;;;;5.87;3.80;;;14.60;31.40;;;;;;5060233;28;46583;-62
2022/07/19 02:07:12;;;;;;;4.70;2.83;;;14.40;31.50;;;;;;5058692;28;46649;-63
2022/07/19 02:09:38;;;;;;;9.33;3.50;;;14.30;31.60;;;;;;5056969;28;47241;-63
2022/07/19 02:12:03;;;;;;;5.37;3.07;;;14.30;31.80;;;;;;5058522;28;46509;-62
2022/07/19 02:14:29;;;;;;;9.70;3.30;;;14.20;32.00;;;;;;5061659;28;46512;-62
2022/07/19 02:16:55;;;;;;;7.80;3.30;;;14.20;32.00;;;;;;5059121;28;46400;-62
2022/07/19 02:19:21;;;;;;;6.23;3.17;;;14.20;31.90;;;;;;5059652;28;47922;-63
2022/07/19 02:21:47;;;;;;;5.83;2.93;;;14.20;32.00;;;;;;5057693;28;46415;-63
2022/07/19 02:24:13;;;;;;;5.10;3.10;;;14.20;32.30;;;;;;5059483;28;46540;-63
2022/07/19 02:26:39;;;;;;;5.73;2.73;;;14.10;32.30;;;;;;5058567;28;46525;-63
2022/07/19 02:29:05;;;;;;;10.60;3.20;;;14.10;32.50;;;;;;5056242;28;47132;-63
2022/07/19 02:31:30;;;;;;;16.43;2.70;;;14.00;32.50;;;;;;5057595;28;46352;-63
2022/07/19 02:33:56;;;;;;;8.60;2.87;;;14.00;32.60;;;;;;5060360;28;46452;-63
2022/07/19 02:36:21;;;;;;;4.77;2.97;;;13.90;32.60;;;;;;5055508;28;46705;-63
2022/07/19 02:38:47;;;;;;;5.63;2.77;;;13.90;32.50;;;;;;5058242;28;47284;-63
2022/07/19 02:41:13;;;;;;;5.33;3.40;;;13.90;32.60;;;;;;5060781;28;45862;-63
2022/07/19 02:43:40;;;;;;;5.50;3.60;;;13.90;32.70;;;;;;5061453;28;46497;-63
2022/07/19 02:46:06;;;;;;;6.03;3.50;;;13.90;32.70;;;;;;5059996;28;46363;-63
2022/07/19 02:48:32;;;;;;;6.33;3.70;;;13.90;32.70;;;;;;5059639;28;46583;-63
2022/07/19 02:50:58;;;;;;;6.10;3.27;;;14.00;32.80;;;;;;5060268;28;46441;-63
2022/07/19 02:53:23;;;;;;;7.77;3.80;;;14.10;33.00;;;;;;5061488;28;46416;-63
2022/07/19 02:55:49;;;;;;;6.73;3.70;;;14.10;32.90;;;;;;5059728;28;46630;-63
2022/07/19 02:58:15;;;;;;;5.57;3.30;;;14.10;33.10;;;;;;5059546;28;46116;-63
2022/07/19 03:00:41;;;;;;;9.87;3.90;;;14.10;33.10;;;;;;5060588;28;46444;-63
2022/07/19 03:05:51;;;;;;;5.07;3.30;;;14.10;33.50;;;;;;5060934;28;46609;-64
2022/07/19 03:08:17;;;;;;;6.87;3.00;;;14.00;33.60;;;;;;5059993;28;46184;-63
2022/07/19 03:10:43;;;;;;;6.70;3.30;;;13.80;33.60;;;;;;5060196;28;45888;-63
2022/07/19 03:13:09;;;;;;;4.63;3.30;;;13.80;33.70;;;;;;5057254;28;46505;-63
2022/07/19 03:15:35;;;;;;;4.10;2.77;;;13.70;33.70;;;;;;5060852;28;46460;-63
2022/07/19 03:18:01;;;;;;;6.60;2.93;;;13.70;33.50;;;;;;5058798;28;47280;-63
2022/07/19 03:20:27;;;;;;;6.17;3.93;;;13.80;33.50;;;;;;5059319;28;46424;-64
2022/07/19 03:22:52;;;;;;;5.40;3.70;;;13.80;33.30;;;;;;5060819;28;46388;-63
2022/07/19 03:25:18;;;;;;;5.30;3.20;;;13.90;33.40;;;;;;5060017;28;46734;-65
2022/07/19 03:27:44;;;;;;;4.80;3.23;;;13.90;33.50;;;;;;5059149;28;46533;-64
2022/07/19 03:30:09;;;;;;;6.93;3.40;;;13.90;33.60;;;;;;5057582;28;46467;-65
2022/07/19 03:32:35;;;;;;;10.20;3.80;;;14.00;33.80;;;;;;5059998;28;46368;-65
2022/07/19 03:35:01;;;;;;;7.40;3.80;;;13.90;33.80;;;;;;5059407;28;46573;-65
2022/07/19 03:37:26;;;;;;;5.00;3.23;;;13.90;34.00;;;;;;5059401;28;46589;-64
2022/07/19 03:39:52;;;;;;;6.97;3.20;;;13.80;34.30;;;;;;5060605;28;46441;-64
2022/07/19 03:42:17;;;;;;;7.33;3.13;;;13.70;34.30;;;;;;5061051;28;45956;-65
2022/07/19 03:44:43;;;;;;;5.10;3.07;;;13.70;34.40;;;;;;5060414;28;46432;-64
2022/07/19 03:47:09;;;;;;;5.67;3.57;;;13.70;34.30;;;;;;5057769;28;48089;-64
2022/07/19 03:49:34;;;;;;;15.93;3.33;;;13.70;34.20;;;;;;5062438;28;46094;-64
2022/07/19 03:52:00;;;;;;;7.57;3.10;;;13.70;34.30;;;;;;5061488;28;46399;-64
2022/07/19 03:54:25;;;;;;;4.83;2.80;;;13.60;34.40;;;;;;5063913;28;46312;-65
2022/07/19 03:56:51;;;;;;;4.27;3.03;;;13.60;34.70;;;;;;5063327;28;46685;-66
2022/07/19 03:59:17;;;;;;;3.83;2.80;;;13.50;35.90;;;;;;5063872;28;46476;-64
2022/07/19 04:01:42;;;;;;;5.20;3.37;;;13.50;34.60;;;;;;5063021;28;46329;-64
2022/07/19 04:04:08;;;;;;;6.10;3.10;;;13.50;34.40;;;;;;5061639;28;46396;-64
2022/07/19 04:06:33;;;;;;;5.53;3.27;;;13.50;34.40;;;;;;5063119;28;46325;-63
2022/07/19 04:08:59;;;;;;;4.97;3.40;;;13.50;34.40;;;;;;5062806;28;46356;-64
2022/07/19 04:11:25;;;;;;;7.13;4.13;;;13.50;34.30;;;;;;5062032;28;46342;-64
2022/07/19 04:13:50;;;;;;;4.53;3.10;;;13.60;34.30;;;;;;5062899;28;46451;-64
2022/07/19 04:16:16;;;;;;;7.63;3.50;;;13.70;34.20;;;;;;5062534;28;47957;-64
2022/07/19 04:18:41;;;;;;;5.70;3.37;;;13.90;34.10;;;;;;5063023;28;46415;-64
2022/07/19 04:21:07;;;;;;;5.23;3.80;;;14.00;35.10;;;;;;5061486;28;46386;-64
2022/07/19 04:23:33;;;;;;;8.93;3.93;;;14.20;33.80;;;;;;5063517;28;46564;-64
2022/07/19 04:25:59;;;;;;;4.37;3.43;;;14.40;33.70;;;;;;5060398;28;47873;-64
2022/07/19 04:28:24;;;;;;;9.57;3.90;;;14.50;33.70;;;;;;5062221;28;46411;-63
2022/07/19 04:30:50;;;;;;;7.07;3.50;;;14.60;33.80;;;;;;5062177;28;46622;-64
2022/07/19 04:33:17;;;;;;;6.83;3.50;;;14.80;33.80;;;;;;5062923;28;46404;-63
2022/07/19 04:35:43;;;;;;;9.40;3.20;;;15.00;33.70;;;;;;5063407;28;46366;-64
2022/07/19 04:38:10;;;;;;;6.90;3.07;;;15.10;33.50;;;;;;5061606;28;46527;-64
2022/07/19 04:40:36;;;;;;;4.73;3.10;;;15.30;33.50;;;;;;5063551;28;46716;-64
2022/07/19 04:43:02;;;;;;;7.53;3.13;;;15.50;34.60;;;;;;5062778;28;46399;-64
2022/07/19 04:45:27;;;;;;;5.37;3.20;;;15.60;33.00;;;;;;5062829;28;47152;-64
2022/07/19 04:47:53;;;;;;;8.40;3.03;;;15.60;32.90;;;;;;5061267;28;45854;-64
2022/07/19 04:50:19;;;;;;;4.30;2.93;;;15.70;32.80;;;;;;5063214;28;46500;-64
2022/07/19 04:52:45;;;;;;;8.63;3.60;;;15.90;32.40;;;;;;5062504;28;45907;-64
2022/07/19 04:55:11;;;;;;;6.67;3.43;;;16.50;32.10;;;;;;5061891;28;46395;-64
2022/07/19 04:57:37;;;;;;;4.67;2.80;;;18.00;29.70;;;;;;5061883;28;46426;-64
2022/07/19 05:00:09;;;;;;;5.20;3.27;;;18.70;27.90;;;;;;5062355;28;46528;-64
2022/07/19 05:02:35;;;;;;;6.37;3.33;;;19.80;26.30;;;;;;5062365;28;46385;-64
2022/07/19 05:05:01;;;;;;;7.63;3.50;;;21.30;24.40;;;;;;5061186;28;46648;-64
2022/07/19 05:07:27;;;;;;;5.93;3.00;;;22.80;23.00;;;;;;5061221;28;46382;-64
2022/07/19 05:09:52;;;;;;;5.20;3.20;;;24.10;21.20;;;;;;5056616;28;46458;-64
2022/07/19 05:12:18;;;;;;;4.77;2.90;;;25.20;19.60;;;;;;5063075;28;46247;-63
2022/07/19 05:14:43;;;;;;;7.20;3.10;;;26.10;17.90;;;;;;5060288;28;47312;-63
2022/07/19 05:17:09;;;;;;;4.50;3.40;;;27.00;16.50;;;;;;5062263;28;46307;-64
2022/07/19 05:19:35;;;;;;;4.60;2.97;;;27.70;15.50;;;;;;5062290;28;46986;-64
2022/07/19 05:22:00;;;;;;;5.87;3.10;;;28.40;14.30;;;;;;5062896;28;46432;-62
2022/07/19 05:24:26;;;;;;;6.03;2.67;;;28.90;13.50;;;;;;5062366;28;47000;-63
2022/07/19 05:26:51;;;;;;;5.40;3.30;;;29.70;12.10;;;;;;5061023;28;45875;-63
2022/07/19 05:29:17;;;;;;;6.50;3.13;;;30.40;10.70;;;;;;5063898;28;46465;-63
2022/07/19 05:31:43;;;;;;;4.60;2.90;;;31.00;9.50;;;;;;5062120;28;46699;-62
2022/07/19 05:34:08;;;;;;;5.30;2.77;;;31.50;8.50;;;;;;5062046;28;47143;-63
2022/07/19 05:36:34;;;;;;;6.40;3.20;;;32.00;7.20;;;;;;5062222;28;46409;-63
2022/07/19 05:38:59;;;;;;;6.07;3.30;;;32.50;7.50;;;;;;5062195;28;46425;-63
2022/07/19 05:41:25;;;;;;;7.90;3.00;;;32.90;6.20;;;;;;5060735;28;46608;-62
2022/07/19 05:43:52;;;;;;;6.03;3.20;;;33.00;5.90;;;;;;5062087;28;46375;-62
2022/07/19 05:46:18;;;;;;;5.60;3.30;;;32.80;5.60;;;;;;5061165;28;46405;-63
2022/07/19 05:48:44;;;;;;;4.30;3.00;;;32.20;6.60;;;;;;5061426;28;45784;-63
2022/07/19 05:51:09;;;;;;;4.30;3.03;;;32.20;5.60;;;;;;5061784;28;45840;-62
2022/07/19 05:53:36;;;;;;;4.27;2.80;;;32.10;5.50;;;;;;5061215;28;47253;-63
2022/07/19 05:56:03;;;;;;;7.90;2.97;;;32.00;5.30;;;;;;5062078;28;46829;-62
2022/07/19 05:58:28;;;;;;;4.80;2.60;;;32.00;5.10;;;;;;5061409;28;46708;-62
2022/07/19 06:03:38;;;;;;;5.10;2.87;;;32.00;5.30;;;;;;5061612;28;46405;-63
2022/07/19 06:06:04;;;;;;;6.30;2.30;;;31.70;6.10;;;;;;5060781;28;45834;-62
2022/07/19 06:08:29;;;;;;;3.40;2.60;;;31.80;5.50;;;;;;5059566;28;46487;-62
2022/07/19 06:10:55;;;;;;;9.90;3.00;;;30.60;7.60;;;;;;5061306;28;46037;-63
2022/07/19 06:13:21;;;;;;;11.03;3.33;;;29.00;10.90;;;;;;5060430;28;47100;-63
2022/07/19 06:15:46;;;;;;;11.23;2.90;;;27.60;13.30;;;;;;5062134;28;46531;-62
2022/07/19 06:18:12;;;;;;;7.47;3.30;;;26.80;15.00;;;;;;5061005;28;47088;-64
2022/07/19 06:20:38;;;;;;;13.93;3.23;;;26.30;15.60;;;;;;5061676;28;46801;-64
2022/07/19 06:23:03;;;;;;;14.60;3.30;;;26.10;15.50;;;;;;5060516;28;46317;-63
2022/07/19 06:25:29;;;;;;;26.27;4.03;;;25.90;15.30;;;;;;5062013;28;46239;-63
2022/07/19 06:27:54;;;;;;;15.40;3.00;;;25.80;15.30;;;;;;5058646;28;46608;-63
2022/07/19 06:30:20;;;;;;;13.03;2.70;;;25.70;15.20;;;;;;5060578;28;45859;-64
2022/07/19 06:32:45;;;;;;;9.10;2.70;;;25.70;15.20;;;;;;5060517;28;47098;-64
2022/07/19 06:35:11;;;;;;;7.53;2.67;;;25.60;15.20;;;;;;5061880;28;46450;-64
2022/07/19 06:37:37;;;;;;;5.37;2.60;;;25.40;15.10;;;;;;5059426;28;46396;-64
2022/07/19 06:40:03;;;;;;;7.13;2.53;;;25.30;15.00;;;;;;5061666;28;46440;-62
2022/07/19 06:42:29;;;;;;;5.37;2.27;;;25.50;14.30;;;;;;5059922;28;46661;-63
2022/07/19 06:44:55;;;;;;;9.33;2.10;;;25.50;13.70;;;;;;5059742;28;46531;-63
2022/07/19 06:47:21;;;;;;;4.00;2.07;;;25.60;14.20;;;;;;5059642;28;46727;-63
2022/07/19 06:49:47;;;;;;;7.53;2.27;;;25.80;12.60;;;;;;5060942;28;46733;-63
2022/07/19 06:52:12;;;;;;;3.13;1.97;;;25.60;12.50;;;;;;5059749;28;46009;-63
2022/07/19 06:54:38;;;;;;;3.70;2.00;;;25.30;12.90;;;;;;5060229;28;45965;-63
2022/07/19 06:57:05;;;;;;;6.87;2.83;;;25.10;13.10;;;;;;5058481;28;46474;-64
2022/07/19 06:59:30;;;;;;;4.67;2.47;;;25.00;13.10;;;;;;5061127;28;46594;-62
2022/07/19 07:01:56;;;;;;;6.97;2.83;;;25.20;12.70;;;;;;5061244;28;46631;-63
2022/07/19 07:04:21;;;;;;;5.00;2.60;;;25.30;12.40;;;;;;5060334;28;46393;-63
2022/07/19 07:06:47;;;;;;;5.40;2.23;;;25.50;12.10;;;;;;5060569;28;46488;-63
2022/07/19 07:09:13;;;;;;;5.70;2.47;;;25.90;11.60;;;;;;5059868;28;46449;-63
2022/07/19 07:11:38;;;;;;;3.53;2.20;;;26.00;11.60;;;;;;5059763;28;47069;-62
2022/07/19 07:14:04;;;;;;;8.63;2.83;;;26.10;11.50;;;;;;5059814;28;46438;-63
2022/07/19 07:16:29;;;;;;;8.40;2.50;;;25.80;11.90;;;;;;5058692;28;46439;-64
2022/07/19 07:18:55;;;;;;;6.03;2.53;;;25.60;12.40;;;;;;5060354;28;46706;-63
2022/07/19 07:21:20;;;;;;;7.30;2.60;;;25.70;12.40;;;;;;5057075;28;46244;-62
2022/07/19 07:23:46;;;;;;;8.80;2.70;;;25.90;12.10;;;;;;5059405;28;46486;-64
2022/07/19 07:26:12;;;;;;;6.77;2.27;;;26.00;12.00;;;;;;5058415;28;46454;-64
2022/07/19 07:28:37;;;;;;;11.10;2.87;;;26.10;11.70;;;;;;5060684;28;46795;-64
2022/07/19 07:31:03;;;;;;;5.97;2.60;;;26.10;11.50;;;;;;5058973;28;47339;-64
2022/07/19 07:33:29;;;;;;;15.10;3.27;;;26.10;11.30;;;;;;5059581;28;46490;-63
2022/07/19 07:35:56;;;;;;;6.23;2.93;;;26.20;11.20;;;;;;5060218;28;46400;-63
2022/07/19 07:38:21;;;;;;;9.13;2.70;;;26.20;11.20;;;;;;5060233;28;46584;-63
2022/07/19 07:40:47;;;;;;;13.73;2.73;;;26.50;11.10;;;;;;5059996;28;46196;-63
2022/07/19 07:43:12;;;;;;;6.47;2.60;;;26.60;10.90;;;;;;5059642;28;46612;-63
2022/07/19 07:45:38;;;;;;;9.67;2.57;;;26.50;10.70;;;;;;5059085;28;46337;-63
2022/07/19 07:48:04;;;;;;;14.50;3.30;;;26.40;10.70;;;;;;5059824;28;46383;-63
2022/07/19 07:50:29;;;;;;;5.90;2.40;;;26.70;10.60;;;;;;5057929;28;47032;-63
2022/07/19 07:52:55;;;;;;;7.20;2.50;;;26.90;10.30;;;;;;5060643;28;46508;-63
2022/07/19 07:55:20;;;;;;;12.50;2.80;;;26.90;9.90;;;;;;5059652;28;46537;-63
2022/07/19 07:57:46;;;;;;;9.20;2.40;;;27.00;9.40;;;;;;5059817;28;46307;-64
2022/07/19 08:00:13;;;;;;;8.67;2.70;;;27.10;10.20;;;;;;5059173;28;47244;-64
2022/07/19 08:02:43;;;;;;;4.90;2.57;;;27.20;9.10;;;;;;5058234;28;46444;-62
2022/07/19 08:05:09;;;;;;;6.10;2.80;;;27.30;8.90;;;;;;5060374;28;46394;-63
2022/07/19 08:07:35;;;;;;;7.97;2.27;;;27.30;8.50;;;;;;5059586;28;46635;-63
2022/07/19 08:10:06;;;;;;;7.53;2.73;;;27.40;8.60;;;;;;5059837;28;46333;-65
2022/07/19 08:12:32;;;;;;;14.50;2.70;;;27.60;8.50;;;;;;5059387;28;46372;-62
2022/07/19 08:14:58;;;;;;;9.93;2.43;;;27.80;8.10;;;;;;5060348;28;46815;-62
2022/07/19 08:17:23;;;;;;;9.83;2.53;;;27.70;7.80;;;;;;5059870;28;46005;-62
2022/07/19 08:19:49;;;;;;;7.50;2.40;;;27.70;7.70;;;;;;5060650;28;46574;-62
2022/07/19 08:22:15;;;;;;;16.57;2.97;;;27.80;7.50;;;;;;5060159;28;46404;-63
2022/07/19 08:24:42;;;;;;;5.87;3.23;;;27.80;7.30;;;;;;5059616;28;46376;-63
2022/07/19 08:27:07;;;;;;;9.10;2.67;;;27.90;7.30;;;;;;5058160;28;46377;-63
2022/07/19 08:29:33;;;;;;;7.40;2.47;;;28.10;6.90;;;;;;5059365;28;46300;-63
2022/07/19 08:31:59;;;;;;;9.03;2.63;;;28.10;6.70;;;;;;5059489;28;46845;-63
2022/07/19 08:34:24;;;;;;;5.50;2.37;;;28.20;6.10;;;;;;5059499;28;46383;-63
2022/07/19 08:36:50;;;;;;;5.10;2.63;;;28.30;5.30;;;;;;5062828;28;46388;-63
2022/07/19 08:39:15;;;;;;;7.60;2.60;;;28.30;5.20;;;;;;5062668;28;46298;-63
2022/07/19 08:41:44;;;;;;;8.53;2.60;;;28.30;5.20;;;;;;5064060;28;46626;-63
2022/07/19 08:44:12;;;;;;;9.30;2.50;;;28.50;5.30;;;;;;5061771;28;46661;-63
2022/07/19 08:46:40;;;;;;;7.90;2.27;;;28.50;5.30;;;;;;5062296;28;46468;-63
2022/07/19 08:49:06;;;;;;;10.80;2.43;;;28.60;4.90;;;;;;5062514;28;47338;-62
2022/07/19 08:51:32;;;;;;;8.33;2.20;;;28.60;4.80;;;;;;5062725;28;46427;-62
2022/07/19 08:53:58;;;;;;;5.33;2.03;;;28.70;4.20;;;;;;5061116;28;46379;-62
2022/07/19 08:59:08;;;;;;;5.03;2.20;;;28.60;3.40;;;;;;5060895;28;46381;-62
2022/07/19 09:01:35;;;;;;;8.73;2.30;;;28.70;3.10;;;;;;5061731;28;46544;-62
2022/07/19 09:04:13;;;;;;;9.53;2.10;;;28.70;2.90;;;;;;5060917;28;45848;-62
2022/07/19 09:06:46;;;;;;;20.93;3.03;;;28.80;2.90;;;;;;5062166;28;46515;-63
2022/07/19 09:09:14;;;;;;;6.70;2.00;;;29.00;2.10;;;;;;5061953;28;47941;-63
2022/07/19 09:11:48;;;;;;;8.90;2.50;;;29.00;2.20;;;;;;5062392;28;45858;-63
2022/07/19 09:14:16;;;;;;;8.00;2.40;;;29.10;2.20;;;;;;5063629;28;45905;-62
2022/07/19 09:17:02;;;;;;;4.90;2.90;;;29.20;2.10;;;;;;5062469;28;46362;-62
2022/07/19 09:19:31;;;;;;;9.37;2.27;;;29.40;1.40;;;;;;5062692;28;46452;-62
2022/07/19 09:22:02;;;;;;;4.87;2.07;;;29.50;1.60;;;;;;5060165;28;46455;-62
2022/07/19 09:24:34;;;;;;;11.73;2.23;;;29.60;2.00;;;;;;5062848;28;46364;-62
2022/07/19 09:27:11;;;;;;;6.00;2.50;;;29.60;2.60;;;;;;5061238;28;45895;-63
2022/07/19 09:29:42;;;;;;;3.40;2.03;;;29.70;2.60;;;;;;5060869;28;50071;-63
2022/07/19 09:32:14;;;;;;;9.10;2.50;;;29.50;2.50;;;;;;5062352;28;46329;-63
2022/07/19 09:34:51;;;;;;;5.13;2.23;;;29.50;2.20;;;;;;5061114;28;46291;-63
2022/07/19 09:37:28;;;;;;;9.53;2.93;;;29.50;1.80;;;;;;5059778;28;46422;-63
2022/07/19 09:40:16;;;;;;;8.00;2.43;;;29.40;1.10;;;;;;5063232;28;46543;-63
2022/07/19 09:42:44;;;;;;;4.30;2.37;;;29.40;1.10;;;;;;5061209;28;47310;-63
2022/07/19 09:45:11;;;;;;;4.40;2.20;;;29.60;1.20;;;;;;5060704;28;46526;-63
2022/07/19 09:47:39;;;;;;;7.03;2.13;;;29.80;1.00;;;;;;5060951;28;46299;-64
2022/07/19 09:50:10;;;;;;;9.20;2.27;;;29.80;1.00;;;;;;5062097;28;46523;-64
2022/07/19 09:52:36;;;;;;;4.40;2.30;;;29.80;1.00;;;;;;5060185;28;45920;-63
2022/07/19 09:55:04;;;;;;;8.00;2.07;;;29.70;1.00;;;;;;5062361;28;46298;-62
2022/07/19 09:57:35;;;;;;;7.83;2.57;;;29.70;1.00;;;;;;5061600;28;46819;-63
2022/07/19 10:00:04;;;;;;;5.00;2.27;;;29.80;1.00;;;;;;5061105;28;47073;-63
2022/07/19 10:02:33;;;;;;;8.37;2.57;;;29.90;1.00;;;;;;5059705;28;45831;-62
2022/07/19 10:04:59;;;;;;;8.00;2.80;;;29.90;1.00;;;;;;5060622;28;46803;-62
2022/07/19 10:07:26;;;;;;;6.57;2.40;;;29.90;1.00;;;;;;5060769;28;46527;-63
2022/07/19 10:09:52;;;;;;;11.47;3.07;;;30.00;1.20;;;;;;5059296;28;46560;-63
2022/07/19 10:12:18;;;;;;;8.17;2.77;;;30.00;1.30;;;;;;5059540;28;46559;-62
2022/07/19 10:14:43;;;;;;;6.80;2.50;;;30.10;1.10;;;;;;5061936;28;45938;-63
2022/07/19 10:17:36;;;;;;;9.20;2.97;;;30.20;1.00;;;;;;5060824;28;46485;-62
2022/07/19 10:20:05;;;;;;;9.50;3.10;;;30.20;1.00;;;;;;5058702;28;46148;-62
2022/07/19 10:22:31;;;;;;;6.30;2.37;;;30.30;1.00;;;;;;5059566;28;46403;-62
2022/07/19 10:25:04;;;;;;;8.30;2.40;;;30.50;1.00;;;;;;5061508;28;46467;-62
2022/07/19 10:27:29;;;;;;;10.37;2.70;;;30.60;1.00;;;;;;5059801;28;46431;-61
2022/07/19 10:29:57;;;;;;;5.87;2.60;;;30.70;1.00;;;;;;5060565;28;46002;-62
2022/07/19 10:32:31;;;;;;;5.07;2.80;;;30.60;1.00;;;;;;5058927;28;46520;-62
2022/07/19 10:35:18;;;;;;;5.97;2.40;;;30.70;1.00;;;;;;5061105;28;46365;-63
2022/07/19 10:38:00;;;;;;;5.23;2.27;;;30.60;1.00;;;;;;5058828;28;46488;-63
2022/07/19 10:40:35;;;;;;;6.73;2.47;;;30.70;1.00;;;;;;5061741;28;48076;-63
2022/07/19 10:43:14;;;;;;;4.60;2.27;;;30.70;1.00;;;;;;5060186;28;46380;-63
2022/07/19 10:46:03;;;;;;;3.83;2.10;;;30.60;1.00;;;;;;5058327;28;45879;-63
2022/07/19 10:48:49;;;;;;;3.90;2.20;;;30.70;1.00;;;;;;5060074;28;46295;-64
2022/07/19 10:51:28;;;;;;;11.50;3.10;;;30.70;1.00;;;;;;5061382;28;46862;-63
2022/07/19 10:54:02;;;;;;;4.07;2.27;;;30.90;1.00;;;;;;5061695;28;46481;-62
2022/07/19 10:56:30;;;;;;;3.60;2.23;;;30.90;1.00;;;;;;5062489;28;46455;-62
2022/07/19 10:58:59;;;;;;;7.03;2.47;;;31.00;1.00;;;;;;5058706;28;46424;-63
2022/07/19 11:01:27;;;;;;;6.27;2.47;;;30.90;1.00;;;;;;5061203;28;46234;-63
2022/07/19 11:03:54;;;;;;;3.80;2.30;;;30.80;1.00;;;;;;5060608;28;46427;-62
2022/07/19 11:06:25;;;;;;;5.27;2.67;;;30.70;1.00;;;;;;5061452;28;46471;-62
2022/07/19 11:08:58;;;;;;;9.60;2.87;;;30.70;1.00;;;;;;5060894;28;46420;-63
2022/07/19 11:11:26;;;;;;;7.17;2.17;;;30.80;1.00;;;;;;5060850;28;48207;-62
2022/07/19 11:14:00;;;;;;;6.37;2.63;;;30.90;1.00;;;;;;5059691;28;45827;-62
2022/07/19 11:16:27;;;;;;;7.73;2.60;;;31.10;1.00;;;;;;5060837;28;46374;-63
2022/07/19 11:19:05;;;;;;;5.90;2.83;;;31.10;1.00;;;;;;5059728;28;46442;-63
2022/07/19 11:21:33;;;;;;;4.80;2.50;;;31.20;1.00;;;;;;5060480;28;46358;-63
2022/07/19 11:24:00;;;;;;;4.43;3.00;;;31.30;1.00;;;;;;5059236;28;46343;-63
2022/07/19 11:26:27;;;;;;;6.37;2.90;;;31.30;1.00;;;;;;5060414;28;46574;-63
2022/07/19 11:28:53;;;;;;;7.70;2.90;;;31.30;1.00;;;;;;5057794;28;46587;-63
2022/07/19 11:31:24;;;;;;;4.27;2.60;;;31.40;1.00;;;;;;5059633;28;46468;-63
2022/07/19 11:33:58;;;;;;;5.27;2.70;;;31.20;1.00;;;;;;5060302;28;46396;-62
2022/07/19 11:36:26;;;;;;;6.20;2.57;;;31.20;1.00;;;;;;5058614;28;46381;-62
2022/07/19 11:38:56;;;;;;;4.70;2.90;;;31.30;1.00;;;;;;5058950;28;46569;-63
2022/07/19 11:41:30;;;;;;;5.83;2.50;;;31.40;1.00;;;;;;5058814;28;46326;-63
2022/07/19 11:44:01;;;;;;;6.00;2.90;;;31.60;1.00;;;;;;5060493;28;46655;-62
2022/07/19 11:46:37;;;;;;;6.13;3.20;;;31.50;1.00;;;;;;5059304;28;46112;-64
2022/07/19 11:49:04;;;;;;;7.20;2.70;;;31.60;1.00;;;;;;5058253;28;46573;-62
2022/07/19 11:51:30;;;;;;;6.73;2.77;;;31.60;1.00;;;;;;5060296;28;47954;-62
2022/07/19 11:53:58;;;;;;;3.97;2.70;;;31.70;1.00;;;;;;5058589;28;46406;-62
2022/07/19 11:56:31;;;;;;;4.30;3.23;;;31.70;1.00;;;;;;5060419;28;46330;-62
2022/07/19 11:58:59;;;;;;;12.50;3.33;;;31.60;1.00;;;;;;5061596;28;46411;-63
2022/07/19 12:01:27;;;;;;;4.73;3.00;;;31.50;1.00;;;;;;5059788;28;46448;-63
2022/07/19 12:03:55;;;;;;;6.30;3.30;;;31.60;1.00;;;;;;5065216;28;45923;-63
2022/07/19 12:06:44;;;;;;;8.07;3.37;;;31.70;1.00;;;;;;5062201;28;46453;-63
2022/07/19 12:09:13;;;;;;;9.03;3.40;;;31.90;1.00;;;;;;5059685;28;46441;-63
2022/07/19 12:11:46;;;;;;;6.43;3.97;;;32.10;1.00;;;;;;5064128;28;47001;-62
2022/07/19 12:14:40;;;;;;;8.30;3.23;;;32.10;1.00;;;;;;5062120;28;46498;-63
2022/07/19 12:17:21;;;;;;;8.07;3.23;;;31.90;1.00;;;;;;5061649;28;46320;-63
2022/07/19 12:20:06;;;;;;;8.27;3.03;;;31.90;1.00;;;;;;5063867;28;46643;-64
2022/07/19 12:22:39;;;;;;;15.40;3.60;;;31.80;1.00;;;;;;5063043;28;47083;-64
2022/07/19 12:25:07;;;;;;;7.83;3.47;;;31.70;1.00;;;;;;5062712;28;46483;-62
2022/07/19 12:27:34;;;;;;;11.47;3.43;;;31.70;1.00;;;;;;5062918;28;46334;-63
2022/07/19 12:30:02;;;;;;;8.80;3.63;;;31.80;1.00;;;;;;5062635;28;46414;-62
2022/07/19 12:32:37;;;;;;;7.83;3.60;;;31.80;1.00;;;;;;5062233;28;48096;-63
2022/07/19 12:35:11;;;;;;;15.33;4.23;;;31.90;1.00;;;;;;5062482;28;46452;-62
2022/07/19 12:37:41;;;;;;;8.00;3.30;;;32.00;1.00;;;;;;5062968;28;46408;-63
2022/07/19 12:40:11;;;;;;;7.30;3.30;;;31.90;1.00;;;;;;5061698;28;46412;-63
2022/07/19 12:42:43;;;;;;;9.73;4.03;;;31.90;1.00;;;;;;5062959;28;46390;-62
2022/07/19 12:45:12;;;;;;;4.93;2.90;;;32.00;1.00;;;;;;5061555;28;46411;-62
2022/07/19 12:47:37;;;;;;;5.13;3.30;;;32.10;1.00;;;;;;5061914;28;46426;-64
2022/07/19 12:50:04;;;;;;;11.03;3.10;;;32.00;1.00;;;;;;5063025;28;46469;-62
2022/07/19 12:52:29;;;;;;;7.63;4.30;;;31.90;1.00;;;;;;5062626;28;46201;-62
2022/07/19 12:54:55;;;;;;;6.50;3.90;;;32.00;1.00;;;;;;5062552;28;46455;-63
2022/07/19 12:57:20;;;;;;;7.53;3.63;;;31.90;1.00;;;;;;5062102;28;46432;-63
2022/07/19 12:59:46;;;;;;;6.03;3.80;;;31.90;1.00;;;;;;5064090;28;46300;-63